Time;durP1;ratioP1;P1;durP2;ratioP2;P2;SDS_P1;SDS_P2;PMS_P1;PMS_P2;Temp;Humidity;BMP_temperature;BMP_pressure;BME280_temperature;BME280_humidity;BME280_pressure;Samples;Min_cycle;Max_cycle;Signal;HPM_P1;HPM_P2
2022/08/27 00:00:18;;;;;;;15.00;7.53;;;;;;;20.93;37.78;100029.23;1680480;83;21156;-68
2022/08/27 00:02:45;;;;;;;12.17;6.97;;;;;;;20.89;37.78;100032.39;1679362;83;21057;-57
2022/08/27 00:05:13;;;;;;;14.20;6.77;;;;;;;20.87;37.80;100029.72;1680131;84;21063;-62
2022/08/27 00:07:40;;;;;;;13.63;7.70;;;;;;;20.87;37.84;100036.34;1679969;83;20999;-57
2022/08/27 00:10:12;;;;;;;12.00;7.17;;;;;;;20.87;37.90;100036.34;1682021;84;21391;-57
2022/08/27 00:12:40;;;;;;;14.50;7.53;;;;;;;20.85;37.89;100026.54;1682156;83;21776;-57
2022/08/27 00:15:08;;;;;;;11.43;7.77;;;;;;;20.84;37.91;100030.25;1680007;83;21083;-63
2022/08/27 00:17:35;;;;;;;14.67;8.37;;;;;;;20.82;38.07;100024.40;1682197;83;21548;-56
2022/08/27 00:20:04;;;;;;;15.87;7.93;;;;;;;20.81;38.20;100021.48;1632913;86;21138;-57
2022/08/27 00:22:31;;;;;;;13.00;7.90;;;;;;;20.79;38.14;100027.02;1631002;86;21154;-64
2022/08/27 00:24:58;;;;;;;14.17;7.97;;;;;;;20.78;38.13;100023.31;1624562;86;21243;-67
2022/08/27 00:27:25;;;;;;;15.60;8.67;;;;;;;20.83;37.97;100018.03;1660816;84;21105;-58
2022/08/27 00:29:52;;;;;;;15.37;8.80;;;;;;;20.85;37.92;100015.94;1657911;84;21635;-57
2022/08/27 00:32:19;;;;;;;15.63;7.80;;;;;;;20.82;37.76;100019.89;1680355;83;21571;-67
2022/08/27 00:34:48;;;;;;;14.33;8.03;;;;;;;20.82;37.75;100025.19;1679518;83;21003;-57
2022/08/27 00:37:15;;;;;;;13.83;6.27;;;;;;;20.79;37.74;100023.05;1680962;84;22068;-58
2022/08/27 00:39:42;;;;;;;11.60;5.70;;;;;;;20.75;37.87;100025.14;1679985;83;20991;-57
2022/08/27 00:42:09;;;;;;;11.10;5.47;;;;;;;20.70;37.86;100025.12;1682428;83;21557;-57
2022/08/27 00:44:38;;;;;;;11.33;5.60;;;;;;;20.66;37.94;100024.83;1679731;84;21567;-59
2022/08/27 00:47:12;;;;;;;8.43;5.43;;;;;;;20.62;38.09;100015.27;1677931;82;21086;-67
2022/08/27 00:49:46;;;;;;;12.00;6.50;;;;;;;20.55;38.38;100019.99;1684525;83;21034;-56
2022/08/27 00:52:19;;;;;;;9.67;5.90;;;;;;;20.49;38.64;100023.64;1680301;83;21508;-57
2022/08/27 00:54:46;;;;;;;11.97;6.13;;;;;;;20.40;38.93;100026.47;1682496;83;21337;-58
2022/08/27 00:57:13;;;;;;;9.83;6.30;;;;;;;20.30;39.24;100018.44;1680204;83;21026;-58
2022/08/27 00:59:41;;;;;;;12.67;5.93;;;;;;;20.20;39.38;100020.50;1673056;83;22238;-57
2022/08/27 01:02:17;;;;;;;10.30;6.00;;;;;;;20.10;39.58;100022.52;1680956;83;21946;-57
2022/08/27 01:04:49;;;;;;;13.93;6.70;;;;;;;20.02;39.72;100012.39;1681481;83;21154;-57
2022/08/27 01:07:17;;;;;;;13.93;6.13;;;;;;;19.97;39.88;100011.56;1678830;83;21031;-57
2022/08/27 01:09:46;;;;;;;12.50;7.27;;;;;;;19.90;39.83;100004.62;1679063;83;21199;-57
2022/08/27 01:12:13;;;;;;;14.07;6.90;;;;;;;19.90;39.86;100007.27;1681172;83;21090;-59
2022/08/27 01:14:42;;;;;;;13.50;6.87;;;;;;;19.87;39.84;100003.80;1683841;84;21000;-58
2022/08/27 01:17:09;;;;;;;9.63;6.13;;;;;;;19.85;39.72;100009.87;1684246;84;21345;-57
2022/08/27 01:19:50;;;;;;;9.37;6.37;;;;;;;19.86;39.78;100013.31;1680431;84;21126;-57
2022/08/27 01:23:02;;;;;;;10.72;6.10;;;;;;;19.84;39.86;100014.08;1672946;84;21042;-66
2022/08/27 01:25:30;;;;;;;14.53;6.07;;;;;;;19.80;39.93;100012.45;1686017;84;21571;-58
2022/08/27 01:27:58;;;;;;;8.97;5.30;;;;;;;19.75;40.02;100013.73;1682852;84;21835;-64
2022/08/27 01:30:25;;;;;;;11.80;6.20;;;;;;;19.74;40.12;100012.67;1686423;83;21387;-57
2022/08/27 01:32:53;;;;;;;9.87;6.07;;;;;;;19.73;40.17;100007.88;1683539;83;21039;-56
2022/08/27 01:35:20;;;;;;;9.27;6.37;;;;;;;19.74;40.30;100016.64;1681943;84;21113;-57
2022/08/27 01:37:48;;;;;;;11.50;6.47;;;;;;;19.73;40.28;100011.84;1676871;84;21185;-57
2022/08/27 01:40:18;;;;;;;9.60;5.50;;;;;;;19.72;40.30;100013.43;1680473;83;21544;-62
2022/08/27 01:42:49;;;;;;;11.87;6.10;;;;;;;19.73;40.31;100011.05;1639792;86;21516;-58
2022/08/27 01:45:21;;;;;;;13.87;6.47;;;;;;;19.71;40.26;100019.25;1653268;84;21089;-57
2022/08/27 01:47:48;;;;;;;11.00;6.20;;;;;;;19.71;40.39;100025.06;1649772;85;21043;-67
2022/08/27 01:50:25;;;;;;;13.20;7.87;;;;;;;19.69;40.47;100030.05;1666254;84;21945;-58
2022/08/27 01:52:53;;;;;;;13.23;8.47;;;;;;;19.65;40.74;100028.16;1669667;84;21296;-57
2022/08/27 01:55:23;;;;;;;16.73;10.07;;;;;;;19.62;41.00;100026.83;1641985;85;21036;-56
2022/08/27 01:57:51;;;;;;;16.17;9.90;;;;;;;19.56;41.12;100030.42;1663860;84;21122;-68
2022/08/27 02:00:25;;;;;;;14.67;8.60;;;;;;;19.59;41.17;100026.50;1652330;85;21107;-56
2022/08/27 02:02:53;;;;;;;16.90;8.67;;;;;;;19.59;41.05;100025.17;1645002;85;20980;-57
2022/08/27 02:05:21;;;;;;;17.10;9.60;;;;;;;19.61;41.07;100027.83;1679790;83;21229;-58
2022/08/27 02:07:48;;;;;;;19.13;10.40;;;;;;;19.63;40.98;100035.56;1680755;83;21110;-58
2022/08/27 02:10:22;;;;;;;17.43;9.77;;;;;;;19.64;40.98;100032.66;1682983;83;21062;-58
2022/08/27 02:12:51;;;;;;;13.93;9.03;;;;;;;19.65;41.16;100030.80;1664457;84;21580;-57
2022/08/27 02:15:19;;;;;;;18.47;10.27;;;;;;;19.64;41.17;100035.30;1670837;84;20985;-57
2022/08/27 02:17:46;;;;;;;18.57;9.60;;;;;;;19.65;41.18;100033.45;1692705;83;21468;-66
2022/08/27 02:20:13;;;;;;;17.80;9.47;;;;;;;19.62;41.36;100033.44;1693157;83;21144;-57
2022/08/27 02:22:41;;;;;;;17.50;9.80;;;;;;;19.64;41.35;100030.02;1693779;83;21498;-57
2022/08/27 02:25:11;;;;;;;19.30;10.93;;;;;;;19.66;41.30;100025.28;1695665;83;21553;-57
2022/08/27 02:27:40;;;;;;;15.65;8.63;;;;;;;19.67;41.20;100030.84;1691345;83;21089;-61
2022/08/27 02:30:09;;;;;;;16.47;8.77;;;;;;;19.67;41.07;100031.37;1686494;83;21215;-59
2022/08/27 02:32:38;;;;;;;16.13;8.40;;;;;;;19.66;41.08;100039.83;1635806;86;21625;-57
2022/08/27 02:35:06;;;;;;;16.17;9.13;;;;;;;19.65;41.05;100038.73;1664042;84;21011;-57
2022/08/27 02:37:33;;;;;;;15.20;8.10;;;;;;;19.65;41.03;100034.77;1659983;84;21083;-57
2022/08/27 02:40:03;;;;;;;16.63;8.73;;;;;;;19.62;41.10;100034.77;1657041;84;21079;-56
2022/08/27 02:42:31;;;;;;;15.50;8.30;;;;;;;19.64;41.13;100036.63;1659639;84;21546;-56
2022/08/27 02:44:59;;;;;;;15.57;8.77;;;;;;;19.63;41.20;100036.35;1662465;84;21055;-55
2022/08/27 02:47:27;;;;;;;18.37;9.77;;;;;;;19.64;41.26;100036.63;1682947;83;21140;-61
2022/08/27 02:49:54;;;;;;;14.97;8.63;;;;;;;19.64;41.30;100044.55;1679382;83;21576;-56
2022/08/27 02:52:21;;;;;;;15.50;8.83;;;;;;;19.60;41.25;100042.10;1681708;83;21526;-56
2022/08/27 02:54:49;;;;;;;16.20;8.93;;;;;;;19.60;41.24;100032.05;1680549;83;21215;-56
2022/08/27 02:57:16;;;;;;;16.23;9.07;;;;;;;19.60;41.18;100044.75;1680469;83;21154;-55
2022/08/27 02:59:44;;;;;;;15.63;7.83;;;;;;;19.57;41.14;100041.27;1680519;83;21102;-66
2022/08/27 03:02:12;;;;;;;11.80;7.20;;;;;;;19.61;41.03;100039.72;1681185;84;21582;-56
2022/08/27 03:04:39;;;;;;;14.10;8.23;;;;;;;19.61;40.90;100040.25;1662960;84;21087;-56
2022/08/27 03:07:10;;;;;;;14.13;7.97;;;;;;;19.63;40.77;100043.49;1682863;82;21153;-55
2022/08/27 03:09:37;;;;;;;13.83;7.73;;;;;;;19.67;40.81;100034.81;1680463;83;21055;-61
2022/08/27 03:12:05;;;;;;;11.97;7.40;;;;;;;19.71;40.75;100045.69;1679713;84;21101;-56
2022/08/27 03:14:32;;;;;;;12.00;7.30;;;;;;;19.76;40.74;100047.05;1680196;83;21321;-55
2022/08/27 03:18:16;;;;;;;15.73;8.50;;;;;;;19.82;40.67;100038.66;1681566;84;21450;-56
2022/08/27 03:19:28;;;;;;;15.50;7.93;;;;;;;19.87;40.51;100047.97;1679192;83;21224;-66
2022/08/27 03:21:55;;;;;;;10.57;6.70;;;;;;;19.90;40.50;100044.30;1679257;83;21070;-57
2022/08/27 03:24:23;;;;;;;13.17;7.27;;;;;;;19.94;40.57;100044.60;1682473;83;21020;-55
2022/08/27 03:26:51;;;;;;;13.57;7.43;;;;;;;19.92;40.68;100038.22;1679599;83;21067;-55
2022/08/27 03:29:18;;;;;;;17.03;9.10;;;;;;;19.98;40.53;100035.11;1675825;83;21062;-55
2022/08/27 03:31:45;;;;;;;13.13;6.93;;;;;;;20.12;40.27;100038.95;1681319;83;21945;-62
2022/08/27 03:34:12;;;;;;;13.80;7.40;;;;;;;20.32;39.99;100036.20;1680119;83;21121;-55
2022/08/27 03:36:41;;;;;;;15.40;6.93;;;;;;;20.60;39.58;100036.44;1681151;83;21010;-57
2022/08/27 03:39:08;;;;;;;10.30;6.23;;;;;;;20.93;38.87;100028.70;1679169;83;20951;-55
2022/08/27 03:41:36;;;;;;;12.30;5.77;;;;;;;21.26;38.48;100025.42;1677681;84;21094;-57
2022/08/27 03:44:04;;;;;;;9.83;5.40;;;;;;;21.66;37.72;100026.09;1683808;83;21476;-64
2022/08/27 03:46:32;;;;;;;10.47;5.17;;;;;;;22.05;36.91;100024.31;1683171;84;21556;-56
2022/08/27 03:48:59;;;;;;;11.30;5.47;;;;;;;22.36;36.50;100015.84;1683179;84;20955;-55
2022/08/27 03:51:27;;;;;;;12.23;4.83;;;;;;;22.70;36.05;100016.60;1629013;86;20981;-56
2022/08/27 03:53:54;;;;;;;9.83;5.00;;;;;;;22.98;35.48;100021.86;1662426;84;21075;-58
2022/08/27 03:56:22;;;;;;;9.23;5.13;;;;;;;23.29;34.92;100015.89;1677488;84;21154;-55
2022/08/27 03:58:50;;;;;;;10.57;5.43;;;;;;;23.64;34.31;100012.27;1685857;83;21004;-55
2022/08/27 04:01:17;;;;;;;7.33;4.70;;;;;;;23.90;33.43;100014.23;1679011;84;21007;-55
2022/08/27 04:03:44;;;;;;;7.40;4.47;;;;;;;23.97;33.46;100016.59;1682746;84;21059;-55
2022/08/27 04:06:11;;;;;;;11.27;5.97;;;;;;;23.97;33.46;100019.25;1673154;84;21546;-58
2022/08/27 04:08:39;;;;;;;9.63;5.17;;;;;;;23.98;33.49;100015.50;1668125;84;21532;-55
2022/08/27 04:11:07;;;;;;;7.60;4.50;;;;;;;23.95;33.23;100019.53;1687738;82;21112;-56
2022/08/27 04:13:36;;;;;;;9.63;4.90;;;;;;;23.85;33.39;100012.16;1691967;83;21567;-63
2022/08/27 04:16:04;;;;;;;7.17;3.73;;;;;;;23.63;33.61;100019.17;1665085;84;21105;-65
2022/08/27 04:18:31;;;;;;;11.50;4.67;;;;;;;23.47;33.73;100010.48;1689958;83;21197;-55
2022/08/27 04:21:06;;;;;;;10.10;4.90;;;;;;;23.43;33.97;100006.79;1656534;84;21768;-56
2022/08/27 04:23:34;;;;;;;9.60;3.73;;;;;;;23.53;34.00;100001.42;1680332;84;21056;-57
2022/08/27 04:26:05;;;;;;;7.07;4.30;;;;;;;23.60;33.74;99996.59;1684000;83;21003;-64
2022/08/27 04:28:33;;;;;;;7.50;4.43;;;;;;;23.52;33.74;100007.28;1626034;86;21965;-55
2022/08/27 04:31:01;;;;;;;7.60;4.30;;;;;;;23.48;33.99;99997.44;1667117;84;21072;-66
2022/08/27 04:33:31;;;;;;;8.70;4.50;;;;;;;23.46;34.15;99994.27;1686245;82;22456;-55
2022/08/27 04:36:01;;;;;;;9.30;4.37;;;;;;;23.41;34.22;99992.95;1666228;84;21048;-65
2022/08/27 04:38:28;;;;;;;9.50;4.25;;;;;;;23.41;34.45;99992.95;1662844;84;21042;-56
2022/08/27 04:43:41;;;;;;;7.33;3.37;;;;;;;23.68;34.25;99987.27;1682526;83;21880;-56
2022/08/27 04:46:08;;;;;;;6.23;3.57;;;;;;;23.78;34.03;99995.95;1682508;83;22304;-56
2022/08/27 04:48:37;;;;;;;6.37;3.53;;;;;;;23.85;34.19;99998.30;1685540;84;20995;-56
2022/08/27 04:51:04;;;;;;;6.63;3.50;;;;;;;23.99;34.04;100008.59;1681566;84;20968;-55
2022/08/27 04:53:33;;;;;;;9.07;3.70;;;;;;;24.11;33.73;99997.58;1682206;84;21051;-55
2022/08/27 04:56:01;;;;;;;6.20;3.23;;;;;;;24.23;33.58;99998.54;1683372;83;21070;-56
2022/08/27 04:58:28;;;;;;;5.97;3.80;;;;;;;24.49;33.53;100000.47;1682420;83;21451;-55
2022/08/27 05:01:00;;;;;;;5.90;3.40;;;;;;;24.85;33.19;100000.90;1680245;83;21090;-58
2022/08/27 05:03:25;;;;;;;6.30;3.73;;;;;;;25.17;32.79;99994.14;1681651;83;21026;-56
2022/08/27 05:05:53;;;;;;;5.60;3.20;;;;;;;25.44;32.53;99999.64;1680866;84;21057;-60
2022/08/27 05:08:20;;;;;;;6.77;3.20;;;;;;;25.70;32.36;99994.73;1683833;83;21012;-56
2022/08/27 05:10:48;;;;;;;7.87;3.67;;;;;;;25.92;32.15;99983.48;1686257;84;21106;-56
2022/08/27 05:13:20;;;;;;;5.97;3.60;;;;;;;26.20;31.93;99980.88;1680244;83;21019;-57
2022/08/27 05:15:47;;;;;;;;;;;;;;;26.53;31.60;99978.99;1636787;86;21115;-65
2022/08/27 05:18:14;;;;;;;6.00;3.55;;;;;;;26.86;31.33;99978.36;1631885;85;20138;-57
2022/08/27 05:20:45;;;;;;;5.43;3.67;;;;;;;27.06;31.08;99977.69;1654774;84;21144;-56
2022/08/27 05:23:12;;;;;;;;;;;;;;;27.21;30.95;99982.75;1657598;84;21488;-56
2022/08/27 05:25:41;;;;;;;7.12;3.35;;;;;;;27.38;30.77;99974.86;1636142;86;20248;-56
2022/08/27 05:28:09;;;;;;;6.55;3.90;;;;;;;27.46;30.84;99967.21;1661453;84;21529;-57
2022/08/27 05:30:39;;;;;;;6.03;3.10;;;;;;;27.46;30.81;99971.23;1681580;83;22109;-55
2022/08/27 05:33:09;;;;;;;6.65;3.27;;;;;;;27.59;30.32;99971.73;1679421;83;21646;-56
2022/08/27 05:35:43;;;;;;;5.33;2.85;;;;;;;27.66;30.53;99970.77;1680117;83;22302;-57
2022/08/27 05:38:10;;;;;;;9.18;6.17;;;;;;;27.69;30.28;99969.36;1680438;83;21049;-55
2022/08/27 05:40:39;;;;;;;16.45;11.60;;;;;;;27.59;30.67;99964.49;1679480;83;21043;-59
2022/08/27 05:43:06;;;;;;;9.83;5.55;;;;;;;27.69;30.59;99968.02;1679783;83;21223;-57
2022/08/27 05:45:35;;;;;;;4.92;3.05;;;;;;;27.83;30.18;99958.06;1679020;83;21062;-56
2022/08/27 05:48:03;;;;;;;5.45;3.17;;;;;;;27.95;29.87;99946.80;1678492;83;21166;-57
2022/08/27 05:50:30;;;;;;;6.25;3.50;;;;;;;28.07;29.80;99953.71;1678908;83;22024;-55
2022/08/27 05:52:58;;;;;;;7.53;3.35;;;;;;;28.26;29.59;99955.65;1679625;83;20995;-60
2022/08/27 05:55:25;;;;;;;5.45;3.25;;;;;;;28.45;29.12;99946.59;1683321;82;21101;-57
2022/08/27 05:57:52;;;;;;;26.85;20.17;;;;;;;28.63;29.31;99958.17;1681450;83;21083;-57
2022/08/27 06:03:06;;;;;;;13.93;8.10;;;;;;;29.00;28.76;99959.56;1680819;83;21047;-56
2022/08/27 06:05:33;;;;;;;11.18;6.40;;;;;;;29.13;28.58;99953.80;1680635;83;21086;-60
2022/08/27 06:08:00;;;;;;;39.30;31.12;;;;;;;29.33;28.01;99951.30;1680048;83;21510;-56
2022/08/27 06:10:28;;;;;;;21.87;16.60;;;;;;;29.41;27.97;99964.49;1672171;84;21099;-56
2022/08/27 06:12:55;;;;;;;25.82;19.75;;;;;;;29.48;28.39;99965.38;1630679;86;22320;-56
2022/08/27 06:15:22;;;;;;;32.13;21.87;;;;;;;29.72;27.63;99957.63;1635284;85;21031;-65
2022/08/27 06:17:49;;;;;;;29.57;22.25;;;;;;;29.88;27.35;99950.41;1665799;84;21122;-56
2022/08/27 06:20:19;;;;;;;13.30;8.75;;;;;;;30.02;27.32;99948.33;1661606;84;21078;-65
2022/08/27 06:22:46;;;;;;;10.10;6.20;;;;;;;30.21;26.84;99947.42;1685397;83;21134;-56
2022/08/27 06:25:13;;;;;;;15.80;9.83;;;;;;;30.34;26.67;99947.52;1681267;83;21193;-56
2022/08/27 06:27:40;;;;;;;30.00;23.45;;;;;;;30.41;26.27;99941.88;1682477;84;20994;-60
2022/08/27 06:30:09;;;;;;;39.18;30.35;;;;;;;30.53;26.28;99948.72;1679805;84;20977;-56
2022/08/27 06:32:36;;;;;;;19.35;13.93;;;;;;;30.74;25.86;99942.06;1662057;84;21064;-57
2022/08/27 06:35:05;;;;;;;13.50;10.72;;;;;;;30.95;25.90;99941.28;1639553;85;21568;-56
2022/08/27 06:37:32;;;;;;;7.92;5.58;;;;;;;31.15;25.51;99944.56;1656165;84;21754;-60
2022/08/27 06:40:01;;;;;;;19.15;13.95;;;;;;;31.33;24.95;99930.97;1665063;84;21525;-55
2022/08/27 06:42:30;;;;;;;7.47;4.80;;;;;;;31.40;25.26;99931.23;1658877;85;21213;-56
2022/08/27 06:44:57;;;;;;;5.80;3.87;;;;;;;31.47;24.73;99932.83;1665095;84;21035;-56
2022/08/27 06:47:24;;;;;;;24.32;19.23;;;;;;;31.42;25.02;99924.41;1655706;84;21100;-56
2022/08/27 06:49:51;;;;;;;30.95;24.00;;;;;;;31.38;25.18;99927.53;1651730;84;21738;-56
2022/08/27 06:52:19;;;;;;;46.05;37.50;;;;;;;31.44;24.95;99916.80;1677241;85;21534;-56
2022/08/27 06:54:47;;;;;;;10.20;5.60;;;;;;;31.49;24.54;99927.91;1664974;84;21089;-56
2022/08/27 06:57:14;;;;;;;7.15;5.28;;;;;;;31.48;24.34;99938.44;1678605;83;21070;-56
2022/08/27 06:59:43;;;;;;;25.32;19.75;;;;;;;31.40;24.80;99931.23;1681304;84;21058;-58
2022/08/27 07:02:10;;;;;;;38.15;32.10;;;;;;;31.39;24.96;99927.75;1679839;84;21230;-57
2022/08/27 07:04:38;;;;;;;10.85;8.15;;;;;;;31.56;24.87;99934.09;1679002;83;21118;-57
2022/08/27 07:07:06;;;;;;;41.02;31.25;;;;;;;31.74;24.40;99927.41;1679921;83;21912;-57
2022/08/27 07:09:34;;;;;;;17.52;11.95;;;;;;;31.77;24.49;99924.06;1679040;82;21591;-61
2022/08/27 07:12:01;;;;;;;29.05;25.02;;;;;;;31.84;24.59;99927.00;1679165;83;22259;-58
2022/08/27 07:14:28;;;;;;;7.72;4.25;;;;;;;31.94;24.58;99917.17;1683434;83;21198;-56
2022/08/27 07:16:56;;;;;;;5.90;3.35;;;;;;;32.06;24.28;99923.71;1665626;83;20974;-56
2022/08/27 07:19:24;;;;;;;24.37;16.77;;;;;;;32.13;24.11;99913.94;1677579;83;21131;-65
2022/08/27 07:21:51;;;;;;;25.00;19.75;;;;;;;32.17;24.39;99910.80;1679721;83;21141;-56
2022/08/27 07:24:18;;;;;;;30.52;25.82;;;;;;;32.21;23.97;99919.78;1666957;84;21114;-56
2022/08/27 07:26:45;;;;;;;17.55;12.15;;;;;;;32.18;23.96;99921.02;1648504;85;21871;-56
2022/08/27 07:29:13;;;;;;;22.22;17.77;;;;;;;32.10;24.05;99914.61;1656320;85;21074;-57
2022/08/27 07:31:41;;;;;;;11.05;8.13;;;;;;;32.19;24.19;99906.41;1638975;85;21087;-58
2022/08/27 07:34:08;;;;;;;9.28;6.67;;;;;;;32.33;23.98;99900.12;1654145;85;21463;-58
2022/08/27 07:36:37;;;;;;;7.50;3.22;;;;;;;32.42;24.09;99904.06;1655585;84;21087;-55
2022/08/27 07:39:04;;;;;;;16.12;12.78;;;;;;;32.53;23.67;99910.58;1662048;84;21276;-55
2022/08/27 07:44:23;;;;;;;11.93;8.38;;;;;;;32.61;23.79;99908.32;1683414;84;21098;-58
2022/08/27 07:46:48;;;;;;;7.12;2.87;;;;;;;33.06;23.56;99911.41;1680402;83;21165;-57
2022/08/27 07:49:16;;;;;;;9.65;6.45;;;;;;;33.09;23.30;99906.67;1680087;83;21051;-60
2022/08/27 07:51:43;;;;;;;26.00;21.95;;;;;;;33.06;23.64;99901.95;1680010;83;21124;-65
2022/08/27 07:54:10;;;;;;;19.62;17.00;;;;;;;33.15;23.80;99915.34;1678095;83;21174;-56
2022/08/27 07:56:37;;;;;;;30.25;24.90;;;;;;;33.34;23.84;99906.03;1670625;84;21104;-57
2022/08/27 07:59:04;;;;;;;23.47;16.70;;;;;;;33.58;23.90;99907.84;1670738;84;21070;-64
2022/08/27 08:01:32;;;;;;;8.15;3.42;;;;;;;33.88;22.62;99897.41;1682345;83;21050;-55
2022/08/27 08:04:01;;;;;;;7.30;2.30;;;;;;;34.00;21.56;99886.32;1680820;83;21013;-55
2022/08/27 08:06:28;;;;;;;12.60;10.10;;;;;;;33.91;21.80;99887.83;1675363;82;21316;-56
2022/08/27 08:08:55;;;;;;;9.88;7.05;;;;;;;33.99;21.58;99885.55;1680856;84;21087;-56
2022/08/27 08:11:23;;;;;;;10.38;2.47;;;;;;;34.10;21.16;99889.86;1678504;83;21138;-63
2022/08/27 08:13:51;;;;;;;4.62;1.90;;;;;;;34.17;20.82;99874.34;1678041;83;21488;-56
2022/08/27 08:16:19;;;;;;;7.80;1.95;;;;;;;34.17;21.11;99872.98;1680669;84;21476;-56
2022/08/27 08:18:46;;;;;;;5.85;1.80;;;;;;;34.23;21.09;99872.37;1680350;83;21093;-55
2022/08/27 08:21:13;;;;;;;4.97;2.92;;;;;;;34.25;20.49;99848.48;1681058;83;21015;-56
2022/08/27 08:23:41;;;;;;;5.22;2.00;;;;;;;34.14;21.10;99867.16;1678430;83;21862;-65
2022/08/27 08:26:09;;;;;;;4.42;2.50;;;;;;;34.21;20.77;99870.61;1681531;83;21417;-56
2022/08/27 08:28:37;;;;;;;5.55;2.75;;;;;;;34.23;21.00;99882.42;1681178;83;21205;-56
2022/08/27 08:31:04;;;;;;;10.35;3.50;;;;;;;34.23;20.78;99871.59;1679919;83;21181;-55
2022/08/27 08:33:32;;;;;;;8.40;4.15;;;;;;;34.22;20.54;99874.88;1677823;83;21121;-58
2022/08/27 08:36:08;;;;;;;6.80;3.17;;;;;;;34.15;20.88;99869.30;1680794;83;21063;-56
2022/08/27 08:38:36;;;;;;;7.60;3.20;;;;;;;34.05;20.67;99889.53;1680447;83;21508;-55
2022/08/27 08:41:04;;;;;;;8.05;3.70;;;;;;;33.90;21.30;99867.31;1683685;83;21215;-56
2022/08/27 08:43:39;;;;;;;6.78;3.42;;;;;;;33.96;21.42;99874.03;1678862;83;21011;-64
2022/08/27 08:46:35;;;;;;;6.03;3.55;;;;;;;34.13;21.18;99876.42;1681726;83;21018;-57
2022/08/27 08:49:23;;;;;;;6.10;2.42;;;;;;;34.09;20.73;99872.04;1666673;83;21134;-64
2022/08/27 08:51:50;;;;;;;7.17;3.60;;;;;;;33.93;21.46;99884.19;1679870;83;21043;-55
2022/08/27 08:54:21;;;;;;;9.00;3.98;;;;;;;33.92;20.83;99871.81;1680551;83;21741;-56
2022/08/27 08:57:00;;;;;;;12.78;3.27;;;;;;;33.95;21.05;99865.71;1662816;82;21036;-55
2022/08/27 08:59:32;;;;;;;5.37;2.42;;;;;;;34.04;20.86;99866.91;1682395;83;21559;-55
2022/08/27 09:01:59;;;;;;;4.87;2.60;;;;;;;33.87;20.28;99886.95;1679105;83;21023;-56
2022/08/27 09:04:26;;;;;;;5.95;2.75;;;;;;;33.55;20.54;99873.40;1679371;83;21007;-64
2022/08/27 09:07:14;;;;;;;6.33;2.05;;;;;;;33.48;20.87;99900.23;1678546;83;21402;-56
2022/08/27 09:10:35;;;;;;;5.67;1.95;;;;;;;33.59;20.55;99885.66;1680165;83;21504;-55
2022/08/27 09:13:03;;;;;;;5.58;2.00;;;;;;;33.56;20.63;99895.23;1678941;83;21094;-55
2022/08/27 09:15:33;;;;;;;7.70;2.70;;;;;;;33.38;21.13;99891.27;1667493;83;20991;-56
2022/08/27 09:18:06;;;;;;;8.23;2.40;;;;;;;33.16;20.88;99902.83;1682196;83;21401;-56
2022/08/27 09:20:33;;;;;;;8.00;3.08;;;;;;;32.89;21.33;99896.25;1678784;83;21220;-55
2022/08/27 09:23:27;;;;;;;6.50;2.52;;;;;;;33.03;21.53;99901.85;1680105;83;21043;-64
2022/08/27 09:25:54;;;;;;;6.70;2.58;;;;;;;33.24;21.17;99890.30;1682053;84;21577;-55
2022/08/27 09:31:13;;;;;;;8.03;2.67;;;;;;;33.31;20.99;99904.01;1679531;83;21086;-65
2022/08/27 09:33:41;;;;;;;6.65;2.60;;;;;;;32.97;21.33;99916.17;1679333;83;22386;-56
2022/08/27 09:36:11;;;;;;;7.58;2.30;;;;;;;32.58;21.88;99905.52;1684816;83;21042;-57
2022/08/27 09:38:43;;;;;;;;;;;;;;;32.38;22.48;99893.70;1683690;83;21467;-56
2022/08/27 09:41:17;;;;;;;6.50;3.30;;;;;;;32.51;22.49;99904.75;1682431;84;20089;-63
2022/08/27 09:43:44;;;;;;;7.22;2.70;;;;;;;32.65;22.64;99888.97;1681122;82;22149;-55
2022/08/27 09:46:20;;;;;;;7.58;2.50;;;;;;;32.87;23.06;99901.19;1678661;83;21055;-56
2022/08/27 09:48:47;;;;;;;9.55;3.05;;;;;;;33.10;22.33;99914.98;1681147;83;21508;-57
2022/08/27 09:51:25;;;;;;;9.73;4.92;;;;;;;33.16;21.72;99922.30;1678949;83;21084;-55
2022/08/27 09:54:02;;;;;;;8.15;3.20;;;;;;;32.96;21.78;99902.45;1681052;84;21074;-55
2022/08/27 09:56:35;;;;;;;7.30;2.87;;;;;;;32.90;22.41;99897.81;1682651;84;21118;-64
2022/08/27 09:59:11;;;;;;;5.87;2.60;;;;;;;33.15;22.20;99905.88;1681854;84;21744;-57
2022/08/27 10:01:54;;;;;;;5.72;2.87;;;;;;;33.23;21.82;99909.56;1687190;84;21057;-56
2022/08/27 10:04:34;;;;;;;6.55;2.60;;;;;;;33.20;21.96;99920.48;1681929;84;21038;-57
2022/08/27 10:07:40;;;;;;;9.05;2.72;;;;;;;33.26;22.34;99891.30;1681509;83;21055;-59
2022/08/27 10:10:27;;;;;;;8.55;2.65;;;;;;;33.32;21.80;99913.67;1682393;84;22009;-56
2022/08/27 10:13:03;;;;;;;5.15;2.72;;;;;;;33.16;21.68;99910.93;1684015;83;21213;-57
2022/08/27 10:16:01;;;;;;;5.95;2.90;;;;;;;33.01;22.22;99916.28;1680960;83;21074;-55
2022/08/27 10:18:40;;;;;;;5.15;2.87;;;;;;;32.90;22.59;99915.93;1662734;84;21047;-55
2022/08/27 10:21:29;;;;;;;6.75;3.37;;;;;;;32.86;22.58;99903.67;1689818;83;21169;-56
2022/08/27 10:24:24;;;;;;;5.60;3.25;;;;;;;32.85;22.55;99917.53;1684732;84;21467;-56
2022/08/27 10:27:23;;;;;;;8.05;3.05;;;;;;;32.62;22.78;99886.98;1680716;83;22496;-62
2022/08/27 10:30:04;;;;;;;8.73;2.92;;;;;;;32.51;22.87;99891.27;1683152;84;21544;-57
2022/08/27 10:32:55;;;;;;;8.25;2.58;;;;;;;32.60;22.76;99912.16;1627170;86;21075;-56
2022/08/27 10:35:38;;;;;;;4.90;1.85;;;;;;;32.78;21.99;99901.90;1655567;83;39101;-56
2022/08/27 10:38:19;;;;;;;9.88;2.47;;;;;;;32.95;21.82;99902.21;1681110;84;21435;-55
2022/08/27 10:40:55;;;;;;;7.28;2.37;;;;;;;33.18;21.79;99893.02;1680832;83;21226;-61
2022/08/27 10:44:07;;;;;;;6.92;3.02;;;;;;;33.42;21.93;99904.30;1671160;83;21471;-57
2022/08/27 10:47:14;;;;;;;8.60;3.90;;;;;;;33.61;21.96;99910.43;1679929;83;21180;-65
2022/08/27 10:49:57;;;;;;;8.00;3.15;;;;;;;33.65;21.51;99908.03;1682667;84;21110;-57
2022/08/27 10:52:50;;;;;;;6.00;2.40;;;;;;;33.47;21.75;99901.37;1681166;83;21868;-56
2022/08/27 10:55:42;;;;;;;9.05;3.22;;;;;;;33.46;21.19;99889.00;1678613;83;21564;-66
2022/08/27 10:58:39;;;;;;;5.05;2.25;;;;;;;33.43;21.62;99893.14;1679058;83;21109;-57
2022/08/27 11:01:31;;;;;;;10.82;2.50;;;;;;;33.65;21.57;99895.88;1680250;83;21539;-57
2022/08/27 11:04:08;;;;;;;6.55;2.83;;;;;;;33.91;21.51;99881.06;1685590;83;21051;-66
2022/08/27 11:06:58;;;;;;;10.82;3.08;;;;;;;34.07;21.57;99884.57;1680534;83;21109;-58
2022/08/27 11:09:43;;;;;;;9.15;2.37;;;;;;;34.21;21.51;99900.91;1681255;83;21604;-64
2022/08/27 11:12:16;;;;;;;6.55;2.83;;;;;;;34.16;20.58;99884.38;1683307;84;21136;-57
2022/08/27 11:14:55;;;;;;;6.03;2.40;;;;;;;33.92;21.09;99907.54;1660006;85;21561;-56
2022/08/27 11:17:41;;;;;;;6.37;2.75;;;;;;;33.68;21.15;99894.41;1683105;84;21129;-61
2022/08/27 11:20:31;;;;;;;5.03;2.60;;;;;;;33.53;21.72;99943.23;1682153;83;21466;-57
2022/08/27 11:23:16;;;;;;;8.47;2.47;;;;;;;33.58;21.73;99897.03;1682668;83;21705;-58
2022/08/27 11:25:56;;;;;;;8.43;2.50;;;;;;;33.72;21.92;99893.92;1684238;84;21385;-56
2022/08/27 11:28:31;;;;;;;9.23;2.12;;;;;;;33.87;21.95;99886.39;1681916;84;21019;-59
2022/08/27 11:31:23;;;;;;;5.62;2.50;;;;;;;33.96;21.68;99917.30;1672319;84;21690;-57
2022/08/27 11:34:14;;;;;;;4.55;2.60;;;;;;;33.93;21.35;99896.94;1682138;84;21477;-67
2022/08/27 11:37:14;;;;;;;7.03;3.00;;;;;;;33.87;21.46;99886.95;1681602;84;21390;-57
2022/08/27 11:40:13;;;;;;;7.03;2.95;;;;;;;33.88;21.46;99887.17;1682847;84;21464;-56
2022/08/27 11:42:47;;;;;;;5.78;2.80;;;;;;;33.71;21.77;99889.63;1676863;83;21114;-66
2022/08/27 11:45:33;;;;;;;12.03;3.80;;;;;;;33.60;21.70;99892.63;1683570;84;21609;-56
2022/08/27 11:48:15;;;;;;;7.85;3.15;;;;;;;33.37;22.07;99878.87;1682429;83;21073;-57
2022/08/27 11:50:44;;;;;;;6.10;3.20;;;;;;;33.17;22.21;99884.13;1661592;84;21862;-57
2022/08/27 11:53:11;;;;;;;6.58;3.17;;;;;;;33.11;22.60;99883.36;1627793;84;21154;-57
2022/08/27 11:55:38;;;;;;;5.12;2.80;;;;;;;33.10;22.76;99878.53;1679503;85;20958;-57
2022/08/27 11:58:20;;;;;;;8.88;2.95;;;;;;;33.31;22.84;99884.31;1664189;84;21064;-59